X  Schliessen METAR Luftfahrt Wetterdaten     EDHL Lübeck Blankensee Airport
Temperatur
4°C Temperatur
3°C Taupunkt
93% Feuchtigkeit



Wind
5 km/h
3 mph
1 m/s
3 KTS



310°
NW
Aktuelle Wetterlage

Meistens vereinzelte Wolken Meistens vereinzelte Wolken
Luftdruck 1012.87 (hPa) - 29.91 (inHg)
Sichtweite 6 (Meile) - 9.7 (Km)
Flughafen
Flughafen Code EDHL

Position : Lübeck Blankensee Airport
Entfernung: 78 (Km)

Metar:
EDHL 200420Z AUTO 31003KT 280V340 9999 // SCT023/// BKN035/// OVC043/// 04/03 Q1013

Zeit: 20-04-2024 04:20 CEST